Pagrindinis puslapis
METAR-TAF:

METAR-TAF

Oro uostai :

Ocala International Airport (Jim Taylor Field)

Ocala, Florida, Jungtinės Amerikos Valstijos

platuma: 29-10N, ilguma: 082-13W, Aukštis: 27 m

Dabartinis oras

Ataskaita buvo paskelbta 12 minutes, ne 17:51 UTC
Vėjas 9 kt iš Vakarų/Šiaurės Vakarų
Temperatūra 26°C
Drėgmė 58%
Slėgis 1014 hPa
Matomumas: 16.1 km
Giedras dangus

METAR: KOCF 171751Z 30009KT 10SM CLR 26/17 A2994 RMK AO2 SLP141 T02560167 10256 20183 58016

Laikas: 14:03 (18:03 UTC)


TAF: trūkstamas

Orai ataskaitas ir orų prognozės (METAR, TAF).

turimą stotys yra geltonos ir raudonos taškus žemėlapyje.

Perkelti pele per norėdami pamatyti stoties vardą.

Tada spustelėkite, norėdami matyti oro stebėjimo ir prognozės.

Norėdami pakeisti žemėlapį: spustelėkite ant žalios mygtukų su juodo kryžiaus žemyn,; žalią mygtuką su brūkšneliu, jei norite nutolinti; arba žalių rodyklių gretimoms žemėlapius.


METAR-TAF: